Time;durP1;ratioP1;P1;durP2;ratioP2;P2;SDS_P1;SDS_P2;PMS_P1;PMS_P2;Temp;Humidity;BMP_temperature;BMP_pressure;BME280_temperature;BME280_humidity;BME280_pressure;Samples;Min_cycle;Max_cycle;Signal;HPM_P1;HPM_P2
2021/01/03 00:02:09;;;;;;;7.40;6.60;;;19.60;52.80;;;;;;5055239;28;20481;-68
2021/01/03 00:04:35;;;;;;;7.40;6.47;;;19.70;52.90;;;;;;5056126;28;20474;-70
2021/01/03 00:07:01;;;;;;;7.07;5.53;;;19.70;53.00;;;;;;5057311;28;21124;-68
2021/01/03 00:09:27;;;;;;;8.23;6.53;;;19.60;52.80;;;;;;5052194;28;21045;-68
2021/01/03 00:11:54;;;;;;;6.40;5.80;;;19.60;52.80;;;;;;5056093;28;21322;-68
2021/01/03 00:14:21;;;;;;;8.03;6.17;;;19.60;52.70;;;;;;5054365;28;20493;-68
2021/01/03 00:16:47;;;;;;;6.77;5.87;;;19.70;52.50;;;;;;5056198;28;20478;-68
2021/01/03 00:19:13;;;;;;;7.87;6.47;;;19.70;52.30;;;;;;5052590;28;21529;-68
2021/01/03 00:21:39;;;;;;;8.50;6.00;;;19.70;52.20;;;;;;5055883;28;20473;-68
2021/01/03 00:24:06;;;;;;;6.50;5.90;;;19.70;52.30;;;;;;5050036;28;20478;-68
2021/01/03 00:26:33;;;;;;;6.80;6.10;;;19.70;52.20;;;;;;5050543;28;21244;-68
2021/01/03 00:28:59;;;;;;;6.63;5.87;;;19.60;52.30;;;;;;5055426;28;20478;-69
2021/01/03 00:31:26;;;;;;;8.37;6.30;;;19.60;52.10;;;;;;5052666;28;20478;-68
2021/01/03 00:33:52;;;;;;;7.77;5.33;;;19.60;52.00;;;;;;5056552;28;20485;-68
2021/01/03 00:36:18;;;;;;;6.93;6.23;;;19.60;52.10;;;;;;5055142;28;20508;-68
2021/01/03 00:38:44;;;;;;;8.10;6.53;;;19.60;52.00;;;;;;5056119;28;20501;-68
2021/01/03 00:41:11;;;;;;;6.10;5.57;;;19.60;51.90;;;;;;5044525;28;20480;-67
2021/01/03 00:43:37;;;;;;;6.93;5.40;;;19.50;51.90;;;;;;5056665;28;20474;-68
2021/01/03 00:46:03;;;;;;;6.43;5.83;;;19.50;51.90;;;;;;5055582;28;20494;-68
2021/01/03 00:48:30;;;;;;;6.97;5.83;;;19.50;52.00;;;;;;5054902;28;21259;-68
2021/01/03 00:50:56;;;;;;;8.37;6.03;;;19.50;51.90;;;;;;5055677;28;20501;-68
2021/01/03 00:53:23;;;;;;;6.80;5.97;;;19.50;51.90;;;;;;5054534;28;20497;-68
2021/01/03 00:55:49;;;;;;;8.13;6.00;;;19.50;51.90;;;;;;5057341;28;20478;-67
2021/01/03 00:58:15;;;;;;;6.73;5.33;;;19.50;51.90;;;;;;5060993;28;20477;-68
2021/01/03 01:00:42;;;;;;;5.77;5.07;;;19.50;51.80;;;;;;5056949;28;20478;-68
2021/01/03 01:03:08;;;;;;;6.03;5.40;;;19.50;51.90;;;;;;5060822;28;20485;-68
2021/01/03 01:05:35;;;;;;;8.77;5.63;;;19.50;51.70;;;;;;5058729;28;20872;-68
2021/01/03 01:08:01;;;;;;;5.97;5.37;;;19.60;51.70;;;;;;5059344;28;20486;-68
2021/01/03 01:10:29;;;;;;;6.20;5.60;;;19.50;51.50;;;;;;5058568;28;20907;-68
2021/01/03 01:12:57;;;;;;;5.23;4.83;;;19.60;51.60;;;;;;5060477;28;20486;-68
2021/01/03 01:15:24;;;;;;;6.70;5.53;;;19.60;51.50;;;;;;5063879;28;20511;-69
2021/01/03 01:17:51;;;;;;;5.30;4.80;;;19.60;51.30;;;;;;5058056;28;20932;-68
2021/01/03 01:20:17;;;;;;;6.70;5.50;;;19.70;51.20;;;;;;5058759;28;21535;-68
2021/01/03 01:22:44;;;;;;;7.13;5.73;;;19.70;51.00;;;;;;5060019;28;20555;-68
2021/01/03 01:25:12;;;;;;;6.40;5.67;;;19.70;51.00;;;;;;5059977;28;20493;-67
2021/01/03 01:27:38;;;;;;;6.50;5.80;;;19.70;50.90;;;;;;5058133;28;20477;-68
2021/01/03 01:30:05;;;;;;;5.60;5.10;;;19.70;51.10;;;;;;5060089;28;20485;-69
2021/01/03 01:32:31;;;;;;;4.93;4.53;;;19.70;51.10;;;;;;5056998;28;21530;-67
2021/01/03 01:34:57;;;;;;;6.00;5.50;;;19.60;51.00;;;;;;5062301;28;20482;-69
2021/01/03 01:37:23;;;;;;;5.97;5.47;;;19.60;51.00;;;;;;5053490;28;20486;-68
2021/01/03 01:39:50;;;;;;;6.50;5.90;;;19.60;51.00;;;;;;5057787;28;20501;-68
2021/01/03 01:42:16;;;;;;;5.90;5.30;;;19.60;50.90;;;;;;5056663;28;20489;-68
2021/01/03 01:44:42;;;;;;;6.03;5.13;;;19.60;50.90;;;;;;5059251;28;20496;-69
2021/01/03 01:47:11;;;;;;;4.73;4.30;;;19.60;51.00;;;;;;5055858;28;20497;-68
2021/01/03 01:49:39;;;;;;;7.80;5.40;;;19.60;50.90;;;;;;5057511;28;20531;-67
2021/01/03 01:52:05;;;;;;;8.70;4.90;;;19.60;50.80;;;;;;5058903;28;20490;-68
2021/01/03 01:54:33;;;;;;;9.50;6.60;;;19.60;50.70;;;;;;5056943;28;20538;-67
2021/01/03 01:57:01;;;;;;;5.83;5.13;;;19.60;50.50;;;;;;5059774;28;20891;-68
2021/01/03 01:59:32;;;;;;;9.27;5.50;;;19.70;50.50;;;;;;5057344;28;20895;-68
2021/01/03 02:02:03;;;;;;;6.10;5.23;;;19.70;50.50;;;;;;5055760;28;20485;-67
2021/01/03 02:04:30;;;;;;;6.00;5.50;;;19.70;50.50;;;;;;5062006;28;20489;-67
2021/01/03 02:06:59;;;;;;;8.17;6.00;;;19.70;50.50;;;;;;5056489;28;20511;-67
2021/01/03 02:09:29;;;;;;;6.20;5.63;;;19.60;50.50;;;;;;5057426;28;20485;-68
2021/01/03 02:12:09;;;;;;;6.37;5.30;;;19.60;50.40;;;;;;5056298;28;20478;-67
2021/01/03 02:14:36;;;;;;;6.13;4.90;;;19.60;50.50;;;;;;5057034;28;20480;-68
2021/01/03 02:17:02;;;;;;;7.03;5.17;;;19.60;50.50;;;;;;5054872;28;20493;-67
2021/01/03 02:19:28;;;;;;;7.33;5.80;;;19.60;50.40;;;;;;5051119;28;20500;-67
2021/01/03 02:21:57;;;;;;;6.33;5.27;;;19.60;50.30;;;;;;5065406;28;20489;-68
2021/01/03 02:24:25;;;;;;;7.20;5.83;;;19.60;50.20;;;;;;5055114;28;20473;-68
2021/01/03 02:26:55;;;;;;;10.50;6.13;;;19.70;50.20;;;;;;5056063;28;20769;-68
2021/01/03 02:29:22;;;;;;;6.70;5.17;;;19.70;50.10;;;;;;5057457;28;20478;-68
2021/01/03 02:31:49;;;;;;;6.27;5.50;;;19.70;50.10;;;;;;5054044;28;20493;-68
2021/01/03 02:34:19;;;;;;;7.50;5.93;;;19.70;50.10;;;;;;5056880;28;20475;-68
2021/01/03 02:36:47;;;;;;;6.43;5.80;;;19.70;50.10;;;;;;5048072;28;20577;-68
2021/01/03 02:39:17;;;;;;;7.60;5.13;;;19.70;50.10;;;;;;5051261;28;20514;-67
2021/01/03 02:41:43;;;;;;;5.63;5.13;;;19.60;50.00;;;;;;5052525;28;20485;-68
2021/01/03 02:44:10;;;;;;;7.10;5.90;;;19.60;50.00;;;;;;5058998;28;20497;-68
2021/01/03 02:46:37;;;;;;;7.20;6.07;;;19.60;50.00;;;;;;5057927;28;21290;-68
2021/01/03 02:49:04;;;;;;;6.80;5.60;;;19.60;50.00;;;;;;5057927;28;20485;-68
2021/01/03 02:51:32;;;;;;;7.00;5.93;;;19.60;50.00;;;;;;5056269;28;20514;-69
2021/01/03 02:53:59;;;;;;;5.57;5.07;;;19.60;50.00;;;;;;5056845;28;20888;-68
2021/01/03 02:56:25;;;;;;;9.40;5.60;;;19.60;49.80;;;;;;5047105;28;20528;-68
2021/01/03 02:58:51;;;;;;;12.00;6.03;;;19.60;49.80;;;;;;5072636;28;20494;-68
2021/01/03 03:01:18;;;;;;;6.33;5.70;;;19.60;49.80;;;;;;5054085;28;20551;-68
2021/01/03 03:03:44;;;;;;;6.50;5.83;;;19.60;49.80;;;;;;5056433;28;20484;-68
2021/01/03 03:06:10;;;;;;;6.13;5.53;;;19.60;49.80;;;;;;5058411;28;20527;-67
2021/01/03 03:08:36;;;;;;;7.43;5.77;;;19.50;49.70;;;;;;5060313;28;20473;-67
2021/01/03 03:11:03;;;;;;;5.90;5.30;;;19.50;49.70;;;;;;5058330;28;20509;-68
2021/01/03 03:13:29;;;;;;;5.97;5.43;;;19.50;49.60;;;;;;5068171;28;20997;-68
2021/01/03 03:15:55;;;;;;;7.43;6.50;;;19.60;49.70;;;;;;5058795;28;20498;-68
2021/01/03 03:18:22;;;;;;;8.10;6.37;;;19.60;49.60;;;;;;5054606;28;20505;-67
2021/01/03 03:20:48;;;;;;;6.07;5.17;;;19.60;49.50;;;;;;5057005;28;20493;-68
2021/01/03 03:23:14;;;;;;;6.53;5.80;;;19.60;49.50;;;;;;5055747;28;21222;-68
2021/01/03 03:25:40;;;;;;;10.07;6.60;;;19.60;49.40;;;;;;5058063;28;20473;-68
2021/01/03 03:28:06;;;;;;;7.30;6.17;;;19.60;49.40;;;;;;5058133;28;20473;-68
2021/01/03 03:30:33;;;;;;;6.20;5.60;;;19.60;50.20;;;;;;5055308;28;20485;-67
2021/01/03 03:32:59;;;;;;;9.20;6.60;;;19.60;49.40;;;;;;5052951;28;20549;-67
2021/01/03 03:35:28;;;;;;;12.60;6.77;;;19.60;49.40;;;;;;5070560;28;20554;-67
2021/01/03 03:37:54;;;;;;;10.27;6.50;;;19.60;49.40;;;;;;5053596;28;20482;-67
2021/01/03 03:40:20;;;;;;;6.90;5.90;;;19.50;49.30;;;;;;5055755;28;20547;-67
2021/01/03 03:42:47;;;;;;;7.00;6.20;;;19.60;49.30;;;;;;5054091;28;20486;-68
2021/01/03 03:45:13;;;;;;;9.13;6.03;;;19.60;49.20;;;;;;5049649;28;20477;-69
2021/01/03 03:47:39;;;;;;;6.70;6.00;;;19.50;49.30;;;;;;5061523;28;20481;-68
2021/01/03 03:50:08;;;;;;;6.20;5.60;;;19.50;50.10;;;;;;5056362;28;20486;-68
2021/01/03 03:52:35;;;;;;;7.20;6.13;;;19.50;49.30;;;;;;5054485;28;21060;-68
2021/01/03 03:55:01;;;;;;;6.47;5.80;;;19.50;49.10;;;;;;5054956;28;20498;-68
2021/01/03 03:57:27;;;;;;;7.87;6.60;;;19.60;49.00;;;;;;5051948;28;20497;-68
2021/01/03 03:59:53;;;;;;;7.73;6.53;;;19.50;49.10;;;;;;5052731;28;20489;-69
2021/01/03 04:02:19;;;;;;;11.97;7.30;;;19.50;49.00;;;;;;5052266;28;20478;-69
2021/01/03 04:04:45;;;;;;;6.63;5.93;;;19.60;49.10;;;;;;5057750;28;20871;-68
2021/01/03 04:07:12;;;;;;;6.13;5.53;;;19.60;49.10;;;;;;5057589;28;20497;-67
2021/01/03 04:09:39;;;;;;;7.80;6.90;;;19.60;49.00;;;;;;5053667;28;20483;-68
2021/01/03 04:12:05;;;;;;;7.03;5.93;;;19.60;48.90;;;;;;5054851;28;20501;-68
2021/01/03 04:14:31;;;;;;;6.00;5.50;;;19.70;48.80;;;;;;5057221;28;20482;-68
2021/01/03 04:16:58;;;;;;;7.27;6.00;;;19.60;48.70;;;;;;5055370;28;20493;-67
2021/01/03 04:19:25;;;;;;;10.67;6.40;;;19.60;48.80;;;;;;5055195;28;20488;-67
2021/01/03 04:21:52;;;;;;;7.50;6.70;;;19.60;48.80;;;;;;5052815;28;20489;-67
2021/01/03 04:24:18;;;;;;;6.70;6.00;;;19.60;48.80;;;;;;5056436;28;20486;-72
2021/01/03 04:26:50;;;;;;;7.43;5.70;;;19.60;48.70;;;;;;5055392;28;20478;-68
2021/01/03 04:29:16;;;;;;;8.27;7.33;;;19.60;48.80;;;;;;5041981;28;20468;-69
2021/01/03 04:31:42;;;;;;;10.17;6.20;;;19.60;48.70;;;;;;5064516;28;21215;-68
2021/01/03 04:34:08;;;;;;;8.60;5.70;;;19.60;48.80;;;;;;5061849;28;24347;-67
2021/01/03 04:36:34;;;;;;;5.87;5.27;;;19.70;48.80;;;;;;5064702;28;20485;-68
2021/01/03 04:39:00;;;;;;;6.10;5.53;;;19.70;48.60;;;;;;5062768;28;20474;-68
2021/01/03 04:41:29;;;;;;;8.10;6.53;;;19.60;48.70;;;;;;5047547;28;20497;-68
2021/01/03 04:43:56;;;;;;;10.47;5.17;;;19.60;48.70;;;;;;5042255;28;20993;-68
2021/01/03 04:46:22;;;;;;;8.20;6.30;;;19.60;48.70;;;;;;5045213;28;20470;-68
2021/01/03 04:48:50;;;;;;;6.73;6.00;;;19.60;48.80;;;;;;5060018;28;20537;-68
2021/01/03 04:51:24;;;;;;;8.13;5.60;;;19.60;48.80;;;;;;5033994;28;20568;-68
2021/01/03 04:53:56;;;;;;;9.80;6.40;;;19.60;48.80;;;;;;5029432;28;20479;-68
2021/01/03 04:56:24;;;;;;;9.37;5.60;;;19.50;48.60;;;;;;5041148;28;20563;-68
2021/01/03 04:59:15;;;;;;;7.90;5.50;;;19.50;48.70;;;;;;5041123;28;20486;-68
2021/01/03 05:02:05;;;;;;;9.07;6.13;;;19.50;48.60;;;;;;5041616;28;20473;-68
2021/01/03 05:05:06;;;;;;;6.43;5.40;;;19.50;48.60;;;;;;5058565;28;20954;-68
2021/01/03 05:07:34;;;;;;;7.53;6.60;;;19.50;49.40;;;;;;5053966;28;20478;-68
2021/01/03 05:10:10;;;;;;;6.10;5.57;;;19.50;48.70;;;;;;5043988;28;20543;-68
2021/01/03 05:12:41;;;;;;;5.93;5.33;;;19.60;48.60;;;;;;5057295;28;20496;-69
2021/01/03 05:15:11;;;;;;;5.73;5.13;;;19.60;48.50;;;;;;5055398;28;20489;-67
2021/01/03 05:17:37;;;;;;;6.10;5.50;;;19.70;48.60;;;;;;5071849;28;20493;-67
2021/01/03 05:20:04;;;;;;;7.20;5.17;;;19.60;48.30;;;;;;5060361;28;20489;-68
2021/01/03 05:22:31;;;;;;;5.53;4.93;;;19.70;48.40;;;;;;5062496;28;20996;-68
2021/01/03 05:24:58;;;;;;;5.70;5.10;;;19.70;48.40;;;;;;5051703;28;20490;-67
2021/01/03 05:27:24;;;;;;;6.70;5.03;;;19.60;48.40;;;;;;5054734;28;20495;-67
2021/01/03 05:29:50;;;;;;;5.27;4.77;;;19.60;48.50;;;;;;5042058;28;21065;-68
2021/01/03 05:32:27;;;;;;;6.03;5.43;;;19.60;48.50;;;;;;5042411;28;20482;-68
2021/01/03 05:34:53;;;;;;;5.80;4.70;;;19.60;48.40;;;;;;5058640;28;21217;-67
2021/01/03 05:37:21;;;;;;;6.20;5.20;;;19.60;48.50;;;;;;5060690;28;20574;-68
2021/01/03 05:39:47;;;;;;;6.90;4.97;;;19.50;48.40;;;;;;5052652;28;20480;-67
2021/01/03 05:42:21;;;;;;;5.27;4.77;;;19.50;48.40;;;;;;5062253;28;20482;-67
2021/01/03 05:44:53;;;;;;;6.93;4.90;;;19.50;48.30;;;;;;5035178;28;20481;-68
2021/01/03 05:47:21;;;;;;;5.83;5.23;;;19.50;48.20;;;;;;5052902;28;20481;-68
2021/01/03 05:50:06;;;;;;;5.17;4.57;;;19.50;48.30;;;;;;5046683;28;20482;-67
2021/01/03 05:52:32;;;;;;;5.37;4.90;;;19.50;48.30;;;;;;5058853;28;20477;-68
2021/01/03 05:55:02;;;;;;;6.30;5.23;;;19.60;48.30;;;;;;5058605;28;20485;-68
2021/01/03 05:57:29;;;;;;;7.67;4.40;;;19.60;48.20;;;;;;5058266;28;20470;-68
2021/01/03 05:59:55;;;;;;;8.10;4.67;;;19.60;48.20;;;;;;5057426;28;20485;-68
2021/01/03 06:02:23;;;;;;;4.90;4.43;;;19.60;48.20;;;;;;5052957;28;20482;-69
2021/01/03 06:05:01;;;;;;;4.87;4.33;;;19.60;48.20;;;;;;5060059;28;20515;-67
2021/01/03 06:07:27;;;;;;;4.30;3.83;;;19.60;48.10;;;;;;5058159;28;20489;-68
2021/01/03 06:09:54;;;;;;;6.20;4.83;;;19.60;48.00;;;;;;5055768;28;20482;-67
2021/01/03 06:12:21;;;;;;;6.63;5.00;;;19.60;47.80;;;;;;5059459;28;20516;-67
2021/01/03 06:14:48;;;;;;;7.37;5.23;;;19.60;47.70;;;;;;5044368;28;20486;-68
2021/01/03 06:17:24;;;;;;;4.43;4.03;;;19.60;47.80;;;;;;5057245;28;20478;-68
2021/01/03 06:19:52;;;;;;;4.67;4.17;;;19.70;47.70;;;;;;5048385;28;20572;-69
2021/01/03 06:22:39;;;;;;;5.87;5.23;;;19.70;47.30;;;;;;5055299;28;21062;-67
2021/01/03 06:25:13;;;;;;;4.60;4.20;;;19.70;47.20;;;;;;5059014;28;20487;-68
2021/01/03 06:27:39;;;;;;;4.93;4.37;;;19.70;47.00;;;;;;5054143;28;20481;-69
2021/01/03 06:30:07;;;;;;;4.33;3.93;;;19.80;46.80;;;;;;5047244;28;20494;-68
2021/01/03 06:32:59;;;;;;;6.50;4.60;;;19.90;46.90;;;;;;5052272;28;20516;-66
2021/01/03 06:35:28;;;;;;;4.90;3.80;;;19.90;46.80;;;;;;5057070;28;20477;-68
2021/01/03 06:37:56;;;;;;;4.27;3.97;;;19.90;46.60;;;;;;5047029;28;20565;-67
2021/01/03 06:40:24;;;;;;;4.33;3.87;;;19.90;46.20;;;;;;5071676;28;20494;-69
2021/01/03 06:43:12;;;;;;;4.17;3.97;;;19.90;46.60;;;;;;5055028;28;20490;-73
2021/01/03 06:46:31;;;;;;;3.10;3.00;;;19.90;47.00;;;;;;5058758;28;20542;-68
2021/01/03 06:49:33;;;;;;;3.63;3.43;;;19.90;47.10;;;;;;5042884;28;20522;-68
2021/01/03 06:52:23;;;;;;;4.43;4.03;;;19.90;47.00;;;;;;5053734;28;20474;-68
2021/01/03 06:55:02;;;;;;;3.90;3.60;;;19.90;47.00;;;;;;5031904;28;20863;-68
2021/01/03 06:57:47;;;;;;;3.23;3.00;;;19.90;47.00;;;;;;5037232;28;20872;-68
2021/01/03 07:00:15;;;;;;;3.97;3.67;;;19.90;46.90;;;;;;5036914;28;20478;-68
2021/01/03 07:02:43;;;;;;;3.17;2.97;;;19.90;47.00;;;;;;5036530;28;20489;-68
2021/01/03 07:05:10;;;;;;;3.73;3.43;;;19.90;47.00;;;;;;5027906;28;20544;-68
2021/01/03 07:07:37;;;;;;;3.07;2.87;;;19.90;46.80;;;;;;5042102;28;20482;-68
2021/01/03 07:10:06;;;;;;;2.33;2.23;;;19.90;46.90;;;;;;5038321;28;20547;-68
2021/01/03 07:12:35;;;;;;;3.23;3.03;;;19.90;46.80;;;;;;5051181;28;20485;-67
2021/01/03 07:15:01;;;;;;;3.37;3.10;;;19.90;46.80;;;;;;5054183;28;20576;-68
2021/01/03 07:18:09;;;;;;;3.20;3.00;;;19.90;46.80;;;;;;5055744;28;20495;-68
2021/01/03 07:20:36;;;;;;;3.97;2.90;;;19.90;46.50;;;;;;5013556;28;21017;-69
2021/01/03 07:23:11;;;;;;;3.23;3.03;;;19.90;46.60;;;;;;5015020;28;20499;-68
2021/01/03 07:25:45;;;;;;;6.90;3.37;;;19.90;46.50;;;;;;5037375;28;20880;-68
2021/01/03 07:28:14;;;;;;;2.97;2.80;;;20.00;46.60;;;;;;5054589;28;20972;-68
2021/01/03 07:30:45;;;;;;;3.00;2.80;;;20.00;46.60;;;;;;5054546;28;20485;-69
2021/01/03 07:33:19;;;;;;;2.73;2.53;;;20.10;46.50;;;;;;5055332;28;20474;-68
2021/01/03 07:35:45;;;;;;;2.70;2.50;;;20.10;46.50;;;;;;5054298;28;20481;-68
2021/01/03 07:38:30;;;;;;;3.13;2.93;;;20.10;46.30;;;;;;5058287;28;20489;-68
2021/01/03 07:41:04;;;;;;;2.53;2.43;;;20.10;46.10;;;;;;5046770;28;20497;-68
2021/01/03 07:43:45;;;;;;;2.73;2.63;;;20.10;46.20;;;;;;5068232;28;20478;-68
2021/01/03 07:46:12;;;;;;;2.47;2.37;;;20.10;46.20;;;;;;5054120;28;20481;-69
2021/01/03 07:48:39;;;;;;;2.83;2.63;;;20.00;46.30;;;;;;5054751;28;20547;-68
2021/01/03 07:51:09;;;;;;;2.47;2.27;;;20.00;46.30;;;;;;5055504;28;20497;-68
2021/01/03 07:53:37;;;;;;;3.30;3.10;;;20.00;46.30;;;;;;5054036;28;20485;-68
2021/01/03 07:56:17;;;;;;;2.80;2.60;;;19.90;46.20;;;;;;5049340;28;20547;-68
2021/01/03 07:58:43;;;;;;;2.83;2.63;;;19.90;46.20;;;;;;5067057;28;20527;-68
2021/01/03 08:01:09;;;;;;;2.97;2.77;;;19.90;46.30;;;;;;5054115;28;20489;-68
2021/01/03 08:03:36;;;;;;;2.83;2.63;;;19.90;46.10;;;;;;5057074;28;20477;-68
2021/01/03 08:06:06;;;;;;;2.90;2.70;;;19.90;46.20;;;;;;5057015;28;20481;-68
2021/01/03 08:08:32;;;;;;;2.67;2.57;;;19.90;46.10;;;;;;5054936;28;20481;-67
2021/01/03 08:11:07;;;;;;;2.37;2.17;;;19.90;46.00;;;;;;5057270;28;20521;-68
2021/01/03 08:13:34;;;;;;;2.53;2.40;;;19.90;46.00;;;;;;5055940;28;20835;-69
2021/01/03 08:16:01;;;;;;;2.47;2.27;;;19.90;46.10;;;;;;5053717;28;20498;-68
2021/01/03 08:18:28;;;;;;;2.13;2.00;;;19.90;46.20;;;;;;5047322;28;21104;-68
2021/01/03 08:21:02;;;;;;;2.10;2.00;;;19.90;46.20;;;;;;5055796;28;20492;-69
2021/01/03 08:23:29;;;;;;;2.40;2.30;;;19.90;46.50;;;;;;5052483;28;20489;-68
2021/01/03 08:26:07;;;;;;;2.20;2.10;;;19.90;46.60;;;;;;5054688;28;20482;-68
2021/01/03 08:28:35;;;;;;;2.20;2.10;;;19.90;46.30;;;;;;5052607;28;20592;-68
2021/01/03 08:31:01;;;;;;;2.80;2.70;;;19.80;46.50;;;;;;5059035;28;20504;-68
2021/01/03 08:33:31;;;;;;;2.17;2.07;;;19.80;46.40;;;;;;5054879;28;20497;-69
2021/01/03 08:35:57;;;;;;;2.53;2.33;;;19.80;46.20;;;;;;5057597;28;21560;-68
2021/01/03 08:38:25;;;;;;;2.73;2.57;;;19.80;46.00;;;;;;5055011;28;20967;-67
2021/01/03 08:40:51;;;;;;;2.10;2.00;;;19.90;46.20;;;;;;5050926;28;20498;-68
2021/01/03 08:43:20;;;;;;;2.27;2.17;;;19.80;46.00;;;;;;5049704;28;20570;-68
2021/01/03 08:45:47;;;;;;;2.43;2.33;;;19.80;45.80;;;;;;5047911;28;20552;-67
2021/01/03 08:48:17;;;;;;;2.70;2.50;;;19.80;45.70;;;;;;5051281;28;20480;-68
2021/01/03 08:50:43;;;;;;;2.93;2.67;;;19.90;45.80;;;;;;5055079;28;20968;-68
2021/01/03 08:53:11;;;;;;;1.97;1.87;;;19.90;45.90;;;;;;5035447;28;21318;-68
2021/01/03 08:55:38;;;;;;;1.80;1.70;;;19.90;45.80;;;;;;5044712;28;20495;-67
2021/01/03 08:58:05;;;;;;;2.17;2.07;;;19.90;45.70;;;;;;5052447;28;20481;-69
2021/01/03 09:00:33;;;;;;;3.10;2.23;;;19.90;45.60;;;;;;5050789;28;20494;-69
2021/01/03 09:03:00;;;;;;;2.80;2.53;;;19.90;45.70;;;;;;5027558;28;20482;-68
2021/01/03 09:05:29;;;;;;;2.93;2.27;;;19.90;45.70;;;;;;5046908;28;20601;-68
2021/01/03 09:07:56;;;;;;;2.53;2.33;;;19.80;45.70;;;;;;5027714;28;20473;-67
2021/01/03 09:10:26;;;;;;;2.00;1.90;;;19.80;45.70;;;;;;5047887;28;21170;-68
2021/01/03 09:13:02;;;;;;;1.93;1.83;;;19.80;45.80;;;;;;5053197;28;20531;-68
2021/01/03 09:15:29;;;;;;;18.30;3.07;;;19.80;46.10;;;;;;5037187;28;21021;-69
2021/01/03 09:18:01;;;;;;;1.90;1.80;;;19.80;47.90;;;;;;5039432;28;20515;-68
2021/01/03 09:20:32;;;;;;;4.23;2.47;;;19.80;46.20;;;;;;5030144;28;20492;-68
2021/01/03 09:23:05;;;;;;;2.47;1.83;;;19.90;46.10;;;;;;5049500;28;20543;-68
2021/01/03 09:25:33;;;;;;;2.30;2.20;;;19.90;46.00;;;;;;5045812;28;20511;-68
2021/01/03 09:28:08;;;;;;;2.93;2.10;;;19.90;45.70;;;;;;5019985;28;21554;-68
2021/01/03 09:30:35;;;;;;;2.27;2.07;;;19.90;45.70;;;;;;5036937;28;21016;-68
2021/01/03 09:33:21;;;;;;;2.67;2.47;;;19.80;45.90;;;;;;5038253;28;20474;-68
2021/01/03 09:35:53;;;;;;;1.83;1.73;;;19.90;45.80;;;;;;5049207;28;20478;-68
2021/01/03 09:38:39;;;;;;;1.70;1.60;;;19.80;45.90;;;;;;5057048;28;20465;-68
2021/01/03 09:41:12;;;;;;;1.63;1.53;;;19.90;46.20;;;;;;5034085;28;20477;-68
2021/01/03 09:43:42;;;;;;;1.47;1.47;;;19.90;46.00;;;;;;5046375;28;20488;-68
2021/01/03 09:46:14;;;;;;;2.00;1.90;;;19.90;46.00;;;;;;5044942;28;20477;-68
2021/01/03 09:48:41;;;;;;;1.63;1.40;;;20.00;46.00;;;;;;5033780;28;20487;-68
2021/01/03 09:51:11;;;;;;;1.50;1.40;;;20.00;46.50;;;;;;5044826;28;20481;-68
2021/01/03 09:53:39;;;;;;;1.87;1.77;;;20.10;46.30;;;;;;5063599;28;20524;-68
2021/01/03 09:56:14;;;;;;;1.70;1.70;;;20.10;46.20;;;;;;5059255;28;20513;-68
2021/01/03 09:58:41;;;;;;;1.87;1.73;;;20.10;46.20;;;;;;5046959;28;20501;-68
2021/01/03 10:01:21;;;;;;;1.57;1.47;;;20.10;46.40;;;;;;5026871;28;20501;-69
2021/01/03 10:03:48;;;;;;;1.93;1.60;;;20.00;46.50;;;;;;5030731;28;20998;-68
2021/01/03 10:06:15;;;;;;;1.60;1.50;;;19.90;46.50;;;;;;5041398;28;20531;-68
2021/01/03 10:08:42;;;;;;;1.73;1.63;;;19.80;46.40;;;;;;5043774;28;20475;-68
2021/01/03 10:11:08;;;;;;;2.23;2.13;;;19.80;46.70;;;;;;5020015;28;20494;-68
2021/01/03 10:13:34;;;;;;;1.67;1.60;;;19.80;46.90;;;;;;5009625;28;20478;-68
2021/01/03 10:16:17;;;;;;;1.83;1.57;;;19.80;46.90;;;;;;5018300;28;20518;-68
2021/01/03 10:18:43;;;;;;;1.80;1.70;;;19.70;47.00;;;;;;5062989;28;20488;-69
2021/01/03 10:21:21;;;;;;;1.83;1.73;;;19.80;46.60;;;;;;5060324;28;20493;-68
2021/01/03 10:23:54;;;;;;;1.77;1.67;;;19.70;46.90;;;;;;5060959;28;20559;-67
2021/01/03 10:26:23;;;;;;;1.53;1.43;;;19.70;46.80;;;;;;5062494;28;20488;-68
2021/01/03 10:28:49;;;;;;;2.47;1.90;;;19.70;46.90;;;;;;5057302;28;20486;-68
2021/01/03 10:31:16;;;;;;;2.47;2.27;;;19.70;46.90;;;;;;5051412;28;20998;-72
2021/01/03 10:33:42;;;;;;;2.63;2.53;;;19.80;47.40;;;;;;5055153;28;20481;-68
2021/01/03 10:36:08;;;;;;;2.00;1.90;;;19.90;47.30;;;;;;5055539;28;21184;-67
2021/01/03 10:38:35;;;;;;;2.37;2.27;;;19.90;47.00;;;;;;5051593;28;20478;-68
2021/01/03 10:41:02;;;;;;;1.83;1.80;;;20.00;46.60;;;;;;5045052;28;20500;-68
2021/01/03 10:43:28;;;;;;;2.57;2.30;;;20.00;46.60;;;;;;5059099;28;20494;-69
2021/01/03 10:45:54;;;;;;;1.50;1.40;;;20.00;46.40;;;;;;5055234;28;20494;-68
2021/01/03 10:48:20;;;;;;;3.20;2.60;;;20.00;46.00;;;;;;5055072;28;20540;-68
2021/01/03 10:50:48;;;;;;;7.13;2.33;;;20.10;45.90;;;;;;5049968;28;20490;-68
2021/01/03 10:53:15;;;;;;;1.80;1.70;;;20.10;45.90;;;;;;5055663;28;21459;-68
2021/01/03 10:55:42;;;;;;;2.40;2.17;;;20.10;45.80;;;;;;5056373;28;20565;-68
2021/01/03 10:58:08;;;;;;;1.70;1.67;;;20.00;45.80;;;;;;5054243;28;20883;-68
2021/01/03 11:00:34;;;;;;;3.60;2.10;;;20.00;46.20;;;;;;5055353;28;20490;-68
2021/01/03 11:03:00;;;;;;;1.80;1.70;;;19.90;46.20;;;;;;5058165;28;20482;-68
2021/01/03 11:05:27;;;;;;;2.00;1.90;;;19.80;46.20;;;;;;5053521;28;21216;-68
2021/01/03 11:07:53;;;;;;;1.80;1.70;;;19.80;46.30;;;;;;5045431;28;20874;-68
2021/01/03 11:10:19;;;;;;;5.20;2.53;;;19.80;46.50;;;;;;5052235;28;20494;-68
2021/01/03 11:12:46;;;;;;;2.53;1.90;;;19.80;46.50;;;;;;5025038;28;20491;-68
2021/01/03 11:15:13;;;;;;;2.17;2.07;;;19.80;46.40;;;;;;5004083;28;20482;-68
2021/01/03 11:17:39;;;;;;;1.73;1.63;;;19.80;46.40;;;;;;5010593;28;20597;-68
2021/01/03 11:20:06;;;;;;;2.73;1.83;;;19.70;46.40;;;;;;5054398;28;20496;-68
2021/01/03 11:22:32;;;;;;;2.90;2.70;;;19.70;46.40;;;;;;5050922;28;20497;-67
2021/01/03 11:24:59;;;;;;;1.83;1.73;;;19.70;46.40;;;;;;5051085;28;20489;-68
2021/01/03 11:27:26;;;;;;;1.70;1.53;;;19.60;46.30;;;;;;5052222;28;20501;-68
2021/01/03 11:29:53;;;;;;;1.90;1.80;;;19.70;46.40;;;;;;5067403;28;20489;-71
2021/01/03 11:32:20;;;;;;;1.50;1.43;;;19.70;46.60;;;;;;5040327;28;21050;-71
2021/01/03 11:34:46;;;;;;;2.93;2.00;;;19.80;49.60;;;;;;5057194;28;20473;-71
2021/01/03 11:37:15;;;;;;;2.90;2.67;;;19.80;69.60;;;;;;5055521;28;20892;-70
2021/01/03 11:39:41;;;;;;;3.63;2.23;;;20.10;83.70;;;;;;5040251;28;20481;-71
2021/01/03 11:42:12;;;;;;;13.43;3.90;;;20.30;90.90;;;;;;5067090;28;20486;-71
2021/01/03 11:44:38;;;;;;;30.00;5.40;;;20.20;87.30;;;;;;5048393;28;20510;-72
2021/01/03 11:47:07;;;;;;;88.70;10.60;;;20.20;95.10;;;;;;5054509;28;21176;-71
2021/01/03 11:49:33;;;;;;;78.70;12.93;;;20.50;98.00;;;;;;5024763;28;20538;-71
2021/01/03 11:51:59;;;;;;;113.13;16.33;;;20.60;97.10;;;;;;5033510;28;20497;-72
2021/01/03 11:54:25;;;;;;;69.13;11.20;;;20.70;84.80;;;;;;5064650;28;20543;-71
2021/01/03 11:56:54;;;;;;;48.37;11.37;;;20.50;70.70;;;;;;5055786;28;20489;-71
2021/01/03 11:59:20;;;;;;;44.10;8.77;;;20.50;81.60;;;;;;5050014;28;20569;-70
2021/01/03 12:01:46;;;;;;;33.83;6.77;;;20.60;74.10;;;;;;5045484;28;20501;-71
2021/01/03 12:04:13;;;;;;;29.40;7.40;;;20.70;63.50;;;;;;5054339;28;20993;-70
2021/01/03 12:06:39;;;;;;;20.53;4.90;;;20.70;59.30;;;;;;5050443;28;20536;-71
2021/01/03 12:09:05;;;;;;;17.83;4.40;;;20.60;55.70;;;;;;5056469;28;20485;-71
2021/01/03 12:11:32;;;;;;;15.53;4.50;;;20.50;55.40;;;;;;5046796;28;20489;-71
2021/01/03 12:13:59;;;;;;;14.90;3.50;;;20.50;55.60;;;;;;5061736;28;20482;-70
2021/01/03 12:16:27;;;;;;;18.83;4.00;;;20.40;55.50;;;;;;5054282;28;20488;-71
2021/01/03 12:18:53;;;;;;;19.63;4.80;;;20.30;55.40;;;;;;5049153;28;20500;-71
2021/01/03 12:21:24;;;;;;;14.67;4.20;;;20.20;55.30;;;;;;5065640;28;20473;-72
2021/01/03 12:23:50;;;;;;;10.63;2.90;;;20.10;54.30;;;;;;5043682;28;20512;-71
2021/01/03 12:26:16;;;;;;;14.93;3.00;;;20.10;53.70;;;;;;5052661;28;20493;-72
2021/01/03 12:28:42;;;;;;;9.17;2.80;;;20.00;53.30;;;;;;5054877;28;20485;-71
2021/01/03 12:31:09;;;;;;;14.07;3.10;;;20.00;52.90;;;;;;5043796;28;20551;-71
2021/01/03 12:33:35;;;;;;;6.73;3.00;;;20.00;53.90;;;;;;5052789;28;20477;-71
2021/01/03 12:36:01;;;;;;;9.40;2.40;;;20.10;64.70;;;;;;5037196;28;20489;-71
2021/01/03 12:38:28;;;;;;;9.80;3.53;;;20.20;86.40;;;;;;5037346;28;21133;-72
2021/01/03 12:40:54;;;;;;;11.23;3.13;;;20.50;94.00;;;;;;5053743;28;20480;-71
2021/01/03 12:43:20;;;;;;;40.23;4.17;;;20.60;96.80;;;;;;5040080;28;20599;-71
2021/01/03 12:45:47;;;;;;;42.73;7.83;;;20.90;99.80;;;;;;5015470;28;20505;-70
2021/01/03 12:48:13;;;;;;;88.60;13.87;;;21.00;99.90;;;;;;5007466;28;20494;-71
2021/01/03 12:50:39;;;;;;;96.00;15.80;;;21.10;99.30;;;;;;5030329;28;21984;-72
2021/01/03 12:53:05;;;;;;;82.23;11.13;;;21.10;92.20;;;;;;5032483;28;20494;-71
2021/01/03 12:55:32;;;;;;;65.00;12.70;;;21.00;86.20;;;;;;5062499;28;20488;-72